sensor_id;sensor_type;location;lat;lon;timestamp;P1;durP1;ratioP1;P2;durP2;ratioP2
29728;SDS011;20055;51.498;11.960;2024-02-26T00:00:45;7.85;;;5.40;;
29728;SDS011;20055;51.498;11.960;2024-02-26T00:03:12;13.25;;;5.97;;
29728;SDS011;20055;51.498;11.960;2024-02-26T00:05:38;10.52;;;5.65;;
29728;SDS011;20055;51.498;11.960;2024-02-26T00:08:04;9.82;;;5.68;;
29728;SDS011;20055;51.498;11.960;2024-02-26T00:10:31;11.98;;;5.75;;
29728;SDS011;20055;51.498;11.960;2024-02-26T00:12:57;11.60;;;5.70;;
29728;SDS011;20055;51.498;11.960;2024-02-26T00:15:23;9.77;;;5.85;;
29728;SDS011;20055;51.498;11.960;2024-02-26T00:17:50;12.30;;;6.97;;
29728;SDS011;20055;51.498;11.960;2024-02-26T00:20:17;11.18;;;6.32;;
29728;SDS011;20055;51.498;11.960;2024-02-26T00:22:43;13.90;;;6.82;;
29728;SDS011;20055;51.498;11.960;2024-02-26T00:25:09;11.48;;;5.95;;
29728;SDS011;20055;51.498;11.960;2024-02-26T00:27:38;8.40;;;5.60;;
29728;SDS011;20055;51.498;11.960;2024-02-26T00:30:06;11.98;;;6.15;;
29728;SDS011;20055;51.498;11.960;2024-02-26T00:32:32;13.82;;;7.47;;
29728;SDS011;20055;51.498;11.960;2024-02-26T00:34:58;13.07;;;6.82;;
29728;SDS011;20055;51.498;11.960;2024-02-26T00:37:25;17.48;;;7.18;;
29728;SDS011;20055;51.498;11.960;2024-02-26T00:39:51;13.77;;;7.55;;
29728;SDS011;20055;51.498;11.960;2024-02-26T00:42:18;14.25;;;7.75;;
29728;SDS011;20055;51.498;11.960;2024-02-26T00:44:45;14.15;;;7.72;;
29728;SDS011;20055;51.498;11.960;2024-02-26T00:47:11;16.52;;;7.78;;
29728;SDS011;20055;51.498;11.960;2024-02-26T00:49:37;14.77;;;8.10;;
29728;SDS011;20055;51.498;11.960;2024-02-26T00:52:03;18.13;;;8.80;;
29728;SDS011;20055;51.498;11.960;2024-02-26T00:54:30;14.32;;;8.23;;
29728;SDS011;20055;51.498;11.960;2024-02-26T00:56:56;21.25;;;9.23;;
29728;SDS011;20055;51.498;11.960;2024-02-26T00:59:22;16.48;;;8.90;;
29728;SDS011;20055;51.498;11.960;2024-02-26T01:01:48;14.88;;;8.23;;
29728;SDS011;20055;51.498;11.960;2024-02-26T01:04:14;10.70;;;6.30;;
29728;SDS011;20055;51.498;11.960;2024-02-26T01:06:41;15.07;;;7.45;;
29728;SDS011;20055;51.498;11.960;2024-02-26T01:09:07;16.45;;;7.25;;
29728;SDS011;20055;51.498;11.960;2024-02-26T01:11:33;12.27;;;6.63;;
29728;SDS011;20055;51.498;11.960;2024-02-26T01:14:00;14.52;;;7.50;;
29728;SDS011;20055;51.498;11.960;2024-02-26T01:16:26;13.90;;;6.00;;
29728;SDS011;20055;51.498;11.960;2024-02-26T01:18:54;20.35;;;6.82;;
29728;SDS011;20055;51.498;11.960;2024-02-26T01:21:20;10.07;;;5.93;;
29728;SDS011;20055;51.498;11.960;2024-02-26T01:23:47;13.27;;;6.78;;
29728;SDS011;20055;51.498;11.960;2024-02-26T01:26:13;18.52;;;8.93;;
29728;SDS011;20055;51.498;11.960;2024-02-26T01:28:39;18.35;;;9.20;;
29728;SDS011;20055;51.498;11.960;2024-02-26T01:31:06;17.08;;;9.82;;
29728;SDS011;20055;51.498;11.960;2024-02-26T01:33:34;18.88;;;10.45;;
29728;SDS011;20055;51.498;11.960;2024-02-26T01:36:00;18.25;;;9.82;;
29728;SDS011;20055;51.498;11.960;2024-02-26T01:38:26;23.20;;;10.55;;
29728;SDS011;20055;51.498;11.960;2024-02-26T01:40:53;23.70;;;10.88;;
29728;SDS011;20055;51.498;11.960;2024-02-26T01:43:19;21.08;;;10.13;;
29728;SDS011;20055;51.498;11.960;2024-02-26T01:45:45;31.65;;;12.35;;
29728;SDS011;20055;51.498;11.960;2024-02-26T01:48:11;22.50;;;12.10;;
29728;SDS011;20055;51.498;11.960;2024-02-26T01:50:38;19.38;;;11.15;;
29728;SDS011;20055;51.498;11.960;2024-02-26T01:53:05;21.63;;;11.40;;
29728;SDS011;20055;51.498;11.960;2024-02-26T01:55:32;21.92;;;12.70;;
29728;SDS011;20055;51.498;11.960;2024-02-26T01:57:59;24.17;;;11.85;;
29728;SDS011;20055;51.498;11.960;2024-02-26T02:00:26;22.55;;;11.70;;
29728;SDS011;20055;51.498;11.960;2024-02-26T02:02:52;20.30;;;12.13;;
29728;SDS011;20055;51.498;11.960;2024-02-26T02:05:20;19.48;;;10.32;;
29728;SDS011;20055;51.498;11.960;2024-02-26T02:07:47;19.25;;;9.57;;
29728;SDS011;20055;51.498;11.960;2024-02-26T02:10:15;19.80;;;10.07;;
29728;SDS011;20055;51.498;11.960;2024-02-26T02:12:42;17.85;;;9.75;;
29728;SDS011;20055;51.498;11.960;2024-02-26T02:15:09;19.92;;;9.45;;
29728;SDS011;20055;51.498;11.960;2024-02-26T02:17:35;19.15;;;8.73;;
29728;SDS011;20055;51.498;11.960;2024-02-26T02:20:02;15.40;;;8.63;;
29728;SDS011;20055;51.498;11.960;2024-02-26T02:22:29;15.13;;;8.07;;
29728;SDS011;20055;51.498;11.960;2024-02-26T02:24:57;17.52;;;8.98;;
29728;SDS011;20055;51.498;11.960;2024-02-26T02:27:24;20.75;;;8.55;;
29728;SDS011;20055;51.498;11.960;2024-02-26T02:29:51;17.27;;;8.43;;
29728;SDS011;20055;51.498;11.960;2024-02-26T02:32:18;14.73;;;7.43;;
29728;SDS011;20055;51.498;11.960;2024-02-26T02:34:45;14.43;;;8.63;;
29728;SDS011;20055;51.498;11.960;2024-02-26T02:37:12;12.70;;;7.20;;
29728;SDS011;20055;51.498;11.960;2024-02-26T02:39:38;14.75;;;7.38;;
29728;SDS011;20055;51.498;11.960;2024-02-26T02:42:04;15.73;;;6.75;;
29728;SDS011;20055;51.498;11.960;2024-02-26T02:44:31;14.50;;;7.68;;
29728;SDS011;20055;51.498;11.960;2024-02-26T02:46:57;13.23;;;7.05;;
29728;SDS011;20055;51.498;11.960;2024-02-26T02:49:23;14.27;;;7.95;;
29728;SDS011;20055;51.498;11.960;2024-02-26T02:51:49;16.88;;;7.18;;
29728;SDS011;20055;51.498;11.960;2024-02-26T02:54:15;13.93;;;7.40;;
29728;SDS011;20055;51.498;11.960;2024-02-26T02:56:41;19.83;;;8.43;;
29728;SDS011;20055;51.498;11.960;2024-02-26T02:59:08;19.15;;;8.88;;
29728;SDS011;20055;51.498;11.960;2024-02-26T03:01:34;15.32;;;8.35;;
29728;SDS011;20055;51.498;11.960;2024-02-26T03:04:00;13.65;;;8.02;;
29728;SDS011;20055;51.498;11.960;2024-02-26T03:06:26;14.68;;;8.00;;
29728;SDS011;20055;51.498;11.960;2024-02-26T03:08:54;11.50;;;7.03;;
29728;SDS011;20055;51.498;11.960;2024-02-26T03:11:20;14.98;;;8.40;;
29728;SDS011;20055;51.498;11.960;2024-02-26T03:13:46;16.13;;;7.57;;
29728;SDS011;20055;51.498;11.960;2024-02-26T03:16:12;12.18;;;7.47;;
29728;SDS011;20055;51.498;11.960;2024-02-26T03:18:39;18.65;;;7.72;;
29728;SDS011;20055;51.498;11.960;2024-02-26T03:21:06;13.45;;;7.07;;
29728;SDS011;20055;51.498;11.960;2024-02-26T03:23:32;14.15;;;7.60;;
29728;SDS011;20055;51.498;11.960;2024-02-26T03:26:05;14.20;;;7.03;;
29728;SDS011;20055;51.498;11.960;2024-02-26T03:28:31;13.73;;;7.20;;
29728;SDS011;20055;51.498;11.960;2024-02-26T03:31:01;12.15;;;6.45;;
29728;SDS011;20055;51.498;11.960;2024-02-26T03:33:27;12.00;;;7.28;;
29728;SDS011;20055;51.498;11.960;2024-02-26T03:35:54;12.75;;;6.55;;
29728;SDS011;20055;51.498;11.960;2024-02-26T03:38:20;13.50;;;6.10;;
29728;SDS011;20055;51.498;11.960;2024-02-26T03:40:46;12.27;;;6.97;;
29728;SDS011;20055;51.498;11.960;2024-02-26T03:43:13;13.05;;;6.70;;
29728;SDS011;20055;51.498;11.960;2024-02-26T03:45:39;13.18;;;6.38;;
29728;SDS011;20055;51.498;11.960;2024-02-26T03:48:05;12.05;;;5.90;;
29728;SDS011;20055;51.498;11.960;2024-02-26T03:50:31;11.98;;;6.40;;
29728;SDS011;20055;51.498;11.960;2024-02-26T03:52:58;15.93;;;6.75;;
29728;SDS011;20055;51.498;11.960;2024-02-26T03:55:25;11.82;;;7.05;;
29728;SDS011;20055;51.498;11.960;2024-02-26T03:57:51;14.32;;;7.07;;
29728;SDS011;20055;51.498;11.960;2024-02-26T04:00:18;14.68;;;8.23;;
29728;SDS011;20055;51.498;11.960;2024-02-26T04:02:44;15.90;;;8.82;;
29728;SDS011;20055;51.498;11.960;2024-02-26T04:05:12;16.48;;;9.25;;
29728;SDS011;20055;51.498;11.960;2024-02-26T04:07:39;14.55;;;9.02;;
29728;SDS011;20055;51.498;11.960;2024-02-26T04:10:09;17.05;;;7.85;;
29728;SDS011;20055;51.498;11.960;2024-02-26T04:12:38;21.33;;;8.48;;
29728;SDS011;20055;51.498;11.960;2024-02-26T04:15:06;16.67;;;8.90;;
29728;SDS011;20055;51.498;11.960;2024-02-26T04:17:33;17.95;;;10.07;;
29728;SDS011;20055;51.498;11.960;2024-02-26T04:19:59;25.63;;;12.10;;
29728;SDS011;20055;51.498;11.960;2024-02-26T04:22:27;26.60;;;13.05;;
29728;SDS011;20055;51.498;11.960;2024-02-26T04:24:53;25.95;;;13.63;;
29728;SDS011;20055;51.498;11.960;2024-02-26T04:27:20;26.08;;;14.27;;
29728;SDS011;20055;51.498;11.960;2024-02-26T04:29:46;27.17;;;14.43;;
29728;SDS011;20055;51.498;11.960;2024-02-26T04:32:12;30.17;;;14.93;;
29728;SDS011;20055;51.498;11.960;2024-02-26T04:34:38;29.95;;;16.02;;
29728;SDS011;20055;51.498;11.960;2024-02-26T04:37:04;31.85;;;17.08;;
29728;SDS011;20055;51.498;11.960;2024-02-26T04:39:30;36.70;;;17.50;;
29728;SDS011;20055;51.498;11.960;2024-02-26T04:41:57;31.50;;;16.88;;
29728;SDS011;20055;51.498;11.960;2024-02-26T04:44:23;29.92;;;15.15;;
29728;SDS011;20055;51.498;11.960;2024-02-26T04:46:49;25.40;;;12.63;;
29728;SDS011;20055;51.498;11.960;2024-02-26T04:49:15;23.98;;;13.90;;
29728;SDS011;20055;51.498;11.960;2024-02-26T04:51:41;25.65;;;13.10;;
29728;SDS011;20055;51.498;11.960;2024-02-26T04:54:07;22.60;;;12.93;;
29728;SDS011;20055;51.498;11.960;2024-02-26T04:56:33;23.17;;;13.13;;
29728;SDS011;20055;51.498;11.960;2024-02-26T04:59:00;30.88;;;13.93;;
29728;SDS011;20055;51.498;11.960;2024-02-26T05:01:26;30.67;;;15.55;;
29728;SDS011;20055;51.498;11.960;2024-02-26T05:03:52;32.47;;;17.25;;
29728;SDS011;20055;51.498;11.960;2024-02-26T05:06:19;37.42;;;20.50;;
29728;SDS011;20055;51.498;11.960;2024-02-26T05:08:45;39.70;;;20.33;;
29728;SDS011;20055;51.498;11.960;2024-02-26T05:11:11;45.40;;;22.10;;
29728;SDS011;20055;51.498;11.960;2024-02-26T05:13:37;47.65;;;23.63;;
29728;SDS011;20055;51.498;11.960;2024-02-26T05:16:04;48.15;;;23.98;;
29728;SDS011;20055;51.498;11.960;2024-02-26T05:18:31;49.88;;;23.85;;
29728;SDS011;20055;51.498;11.960;2024-02-26T05:20:57;46.45;;;23.88;;
29728;SDS011;20055;51.498;11.960;2024-02-26T05:23:23;51.33;;;25.80;;
29728;SDS011;20055;51.498;11.960;2024-02-26T05:25:49;50.10;;;24.90;;
29728;SDS011;20055;51.498;11.960;2024-02-26T05:28:15;45.53;;;24.27;;
29728;SDS011;20055;51.498;11.960;2024-02-26T05:30:42;55.58;;;26.58;;
29728;SDS011;20055;51.498;11.960;2024-02-26T05:33:08;50.30;;;26.70;;
29728;SDS011;20055;51.498;11.960;2024-02-26T05:35:34;54.95;;;26.13;;
29728;SDS011;20055;51.498;11.960;2024-02-26T05:38:00;51.63;;;24.90;;
29728;SDS011;20055;51.498;11.960;2024-02-26T05:40:27;54.58;;;26.02;;
29728;SDS011;20055;51.498;11.960;2024-02-26T05:42:53;52.03;;;27.33;;
29728;SDS011;20055;51.498;11.960;2024-02-26T05:45:19;53.30;;;26.75;;
29728;SDS011;20055;51.498;11.960;2024-02-26T05:47:45;50.13;;;27.02;;
29728;SDS011;20055;51.498;11.960;2024-02-26T05:50:11;57.55;;;28.73;;
29728;SDS011;20055;51.498;11.960;2024-02-26T05:52:38;59.83;;;29.98;;
29728;SDS011;20055;51.498;11.960;2024-02-26T05:55:06;55.58;;;29.85;;
29728;SDS011;20055;51.498;11.960;2024-02-26T05:57:33;64.35;;;30.98;;
29728;SDS011;20055;51.498;11.960;2024-02-26T06:00:00;58.75;;;31.70;;
29728;SDS011;20055;51.498;11.960;2024-02-26T06:02:37;62.83;;;31.67;;
29728;SDS011;20055;51.498;11.960;2024-02-26T06:05:03;67.82;;;32.45;;
29728;SDS011;20055;51.498;11.960;2024-02-26T06:07:30;60.72;;;29.08;;
29728;SDS011;20055;51.498;11.960;2024-02-26T06:09:56;54.50;;;29.77;;
29728;SDS011;20055;51.498;11.960;2024-02-26T06:12:23;70.05;;;32.78;;
29728;SDS011;20055;51.498;11.960;2024-02-26T06:14:49;57.83;;;29.63;;
29728;SDS011;20055;51.498;11.960;2024-02-26T06:17:15;56.17;;;29.55;;
29728;SDS011;20055;51.498;11.960;2024-02-26T06:19:42;56.25;;;29.50;;
29728;SDS011;20055;51.498;11.960;2024-02-26T06:22:08;59.63;;;29.67;;
29728;SDS011;20055;51.498;11.960;2024-02-26T06:24:34;50.53;;;27.60;;
29728;SDS011;20055;51.498;11.960;2024-02-26T06:27:00;52.65;;;28.02;;
29728;SDS011;20055;51.498;11.960;2024-02-26T06:29:27;53.67;;;26.92;;
29728;SDS011;20055;51.498;11.960;2024-02-26T06:31:53;54.92;;;27.02;;
29728;SDS011;20055;51.498;11.960;2024-02-26T06:34:19;57.85;;;26.45;;
29728;SDS011;20055;51.498;11.960;2024-02-26T06:36:46;51.50;;;26.55;;
29728;SDS011;20055;51.498;11.960;2024-02-26T06:39:12;50.28;;;26.52;;
29728;SDS011;20055;51.498;11.960;2024-02-26T06:41:40;53.13;;;25.75;;
29728;SDS011;20055;51.498;11.960;2024-02-26T06:44:07;46.90;;;25.08;;
29728;SDS011;20055;51.498;11.960;2024-02-26T06:46:33;53.45;;;25.95;;
29728;SDS011;20055;51.498;11.960;2024-02-26T06:48:59;53.03;;;27.27;;
29728;SDS011;20055;51.498;11.960;2024-02-26T06:51:25;46.80;;;24.85;;
29728;SDS011;20055;51.498;11.960;2024-02-26T06:53:52;44.75;;;23.98;;
29728;SDS011;20055;51.498;11.960;2024-02-26T06:56:18;50.20;;;24.58;;
29728;SDS011;20055;51.498;11.960;2024-02-26T06:58:45;53.38;;;27.20;;
29728;SDS011;20055;51.498;11.960;2024-02-26T07:01:12;55.70;;;24.60;;
29728;SDS011;20055;51.498;11.960;2024-02-26T07:03:40;49.90;;;24.70;;
29728;SDS011;20055;51.498;11.960;2024-02-26T07:06:06;45.53;;;23.92;;
29728;SDS011;20055;51.498;11.960;2024-02-26T07:08:34;47.95;;;24.00;;
29728;SDS011;20055;51.498;11.960;2024-02-26T07:11:00;43.15;;;22.90;;
29728;SDS011;20055;51.498;11.960;2024-02-26T07:13:26;43.83;;;22.02;;
29728;SDS011;20055;51.498;11.960;2024-02-26T07:15:53;47.28;;;21.20;;
29728;SDS011;20055;51.498;11.960;2024-02-26T07:18:19;41.78;;;20.90;;
29728;SDS011;20055;51.498;11.960;2024-02-26T07:20:45;36.72;;;20.05;;
29728;SDS011;20055;51.498;11.960;2024-02-26T07:23:11;41.58;;;21.20;;
29728;SDS011;20055;51.498;11.960;2024-02-26T07:25:38;35.30;;;19.60;;
29728;SDS011;20055;51.498;11.960;2024-02-26T07:28:04;40.00;;;19.75;;
29728;SDS011;20055;51.498;11.960;2024-02-26T07:30:30;42.10;;;21.15;;
29728;SDS011;20055;51.498;11.960;2024-02-26T07:32:57;44.15;;;20.58;;
29728;SDS011;20055;51.498;11.960;2024-02-26T07:35:23;38.78;;;20.65;;
29728;SDS011;20055;51.498;11.960;2024-02-26T07:37:49;47.03;;;21.02;;
29728;SDS011;20055;51.498;11.960;2024-02-26T07:40:16;41.65;;;21.63;;
29728;SDS011;20055;51.498;11.960;2024-02-26T07:42:42;42.03;;;19.52;;
29728;SDS011;20055;51.498;11.960;2024-02-26T07:45:08;39.92;;;21.17;;
29728;SDS011;20055;51.498;11.960;2024-02-26T07:47:35;36.72;;;19.45;;
29728;SDS011;20055;51.498;11.960;2024-02-26T07:50:01;38.95;;;20.80;;
29728;SDS011;20055;51.498;11.960;2024-02-26T07:52:28;36.55;;;19.73;;
29728;SDS011;20055;51.498;11.960;2024-02-26T07:54:54;39.67;;;19.58;;
29728;SDS011;20055;51.498;11.960;2024-02-26T07:57:20;38.28;;;19.90;;
29728;SDS011;20055;51.498;11.960;2024-02-26T07:59:47;40.20;;;20.95;;
29728;SDS011;20055;51.498;11.960;2024-02-26T08:02:15;37.58;;;19.83;;
29728;SDS011;20055;51.498;11.960;2024-02-26T08:04:42;35.78;;;19.08;;
29728;SDS011;20055;51.498;11.960;2024-02-26T08:07:08;40.60;;;20.83;;
29728;SDS011;20055;51.498;11.960;2024-02-26T08:09:34;41.22;;;21.15;;
29728;SDS011;20055;51.498;11.960;2024-02-26T08:12:00;37.08;;;19.90;;
29728;SDS011;20055;51.498;11.960;2024-02-26T08:14:26;34.45;;;18.77;;
29728;SDS011;20055;51.498;11.960;2024-02-26T08:16:53;48.50;;;21.27;;
29728;SDS011;20055;51.498;11.960;2024-02-26T08:19:19;35.22;;;19.35;;
29728;SDS011;20055;51.498;11.960;2024-02-26T08:21:45;29.52;;;17.77;;
29728;SDS011;20055;51.498;11.960;2024-02-26T08:24:11;32.75;;;18.20;;
29728;SDS011;20055;51.498;11.960;2024-02-26T08:26:37;29.80;;;18.40;;
29728;SDS011;20055;51.498;11.960;2024-02-26T08:29:03;37.13;;;18.73;;
29728;SDS011;20055;51.498;11.960;2024-02-26T08:31:30;39.38;;;18.88;;
29728;SDS011;20055;51.498;11.960;2024-02-26T08:33:56;38.53;;;18.75;;
29728;SDS011;20055;51.498;11.960;2024-02-26T08:36:24;42.28;;;19.27;;
29728;SDS011;20055;51.498;11.960;2024-02-26T08:38:50;38.88;;;19.67;;
29728;SDS011;20055;51.498;11.960;2024-02-26T08:41:16;41.13;;;20.80;;
29728;SDS011;20055;51.498;11.960;2024-02-26T08:43:42;40.42;;;21.02;;
29728;SDS011;20055;51.498;11.960;2024-02-26T08:46:09;41.47;;;16.85;;
29728;SDS011;20055;51.498;11.960;2024-02-26T08:48:36;45.67;;;18.40;;
29728;SDS011;20055;51.498;11.960;2024-02-26T08:51:04;34.55;;;18.05;;
29728;SDS011;20055;51.498;11.960;2024-02-26T08:55:59;35.78;;;17.15;;
29728;SDS011;20055;51.498;11.960;2024-02-26T08:58:26;38.78;;;18.17;;
29728;SDS011;20055;51.498;11.960;2024-02-26T09:00:53;32.42;;;17.08;;
29728;SDS011;20055;51.498;11.960;2024-02-26T09:03:20;39.85;;;17.30;;
29728;SDS011;20055;51.498;11.960;2024-02-26T09:05:47;33.78;;;18.95;;
29728;SDS011;20055;51.498;11.960;2024-02-26T09:08:13;31.05;;;18.42;;
29728;SDS011;20055;51.498;11.960;2024-02-26T09:10:40;33.15;;;19.27;;
29728;SDS011;20055;51.498;11.960;2024-02-26T09:13:06;32.65;;;17.80;;
29728;SDS011;20055;51.498;11.960;2024-02-26T09:15:33;28.83;;;16.70;;
29728;SDS011;20055;51.498;11.960;2024-02-26T09:17:59;43.28;;;17.98;;
29728;SDS011;20055;51.498;11.960;2024-02-26T09:20:25;28.95;;;17.02;;
29728;SDS011;20055;51.498;11.960;2024-02-26T09:22:52;33.70;;;16.83;;
29728;SDS011;20055;51.498;11.960;2024-02-26T09:25:19;29.08;;;17.30;;
29728;SDS011;20055;51.498;11.960;2024-02-26T09:27:45;31.88;;;17.60;;
29728;SDS011;20055;51.498;11.960;2024-02-26T09:30:12;26.98;;;15.80;;
29728;SDS011;20055;51.498;11.960;2024-02-26T09:32:39;36.92;;;16.55;;
29728;SDS011;20055;51.498;11.960;2024-02-26T09:35:06;34.67;;;16.65;;
29728;SDS011;20055;51.498;11.960;2024-02-26T09:37:33;36.53;;;16.70;;
29728;SDS011;20055;51.498;11.960;2024-02-26T09:39:59;40.08;;;16.92;;
29728;SDS011;20055;51.498;11.960;2024-02-26T09:42:26;27.10;;;16.02;;
29728;SDS011;20055;51.498;11.960;2024-02-26T09:44:56;29.30;;;15.07;;
29728;SDS011;20055;51.498;11.960;2024-02-26T09:47:28;30.83;;;16.27;;
29728;SDS011;20055;51.498;11.960;2024-02-26T09:49:56;32.53;;;15.33;;
29728;SDS011;20055;51.498;11.960;2024-02-26T09:52:25;32.25;;;15.00;;
29728;SDS011;20055;51.498;11.960;2024-02-26T09:54:53;28.02;;;14.93;;
29728;SDS011;20055;51.498;11.960;2024-02-26T09:57:19;26.67;;;14.38;;
29728;SDS011;20055;51.498;11.960;2024-02-26T09:59:50;27.35;;;13.80;;
29728;SDS011;20055;51.498;11.960;2024-02-26T10:02:19;28.35;;;14.93;;
29728;SDS011;20055;51.498;11.960;2024-02-26T10:04:47;31.55;;;14.02;;
29728;SDS011;20055;51.498;11.960;2024-02-26T10:07:16;25.08;;;12.82;;
29728;SDS011;20055;51.498;11.960;2024-02-26T10:09:42;21.40;;;12.77;;
29728;SDS011;20055;51.498;11.960;2024-02-26T10:12:09;23.58;;;13.70;;
29728;SDS011;20055;51.498;11.960;2024-02-26T10:14:37;24.63;;;13.63;;
29728;SDS011;20055;51.498;11.960;2024-02-26T10:17:04;22.70;;;13.00;;
29728;SDS011;20055;51.498;11.960;2024-02-26T10:19:34;24.08;;;12.38;;
29728;SDS011;20055;51.498;11.960;2024-02-26T10:22:00;22.05;;;12.27;;
29728;SDS011;20055;51.498;11.960;2024-02-26T10:24:27;20.80;;;11.50;;
29728;SDS011;20055;51.498;11.960;2024-02-26T10:26:54;27.20;;;12.10;;
29728;SDS011;20055;51.498;11.960;2024-02-26T10:29:21;29.95;;;12.85;;
29728;SDS011;20055;51.498;11.960;2024-02-26T10:31:50;32.70;;;14.13;;
29728;SDS011;20055;51.498;11.960;2024-02-26T10:34:17;36.97;;;17.13;;
29728;SDS011;20055;51.498;11.960;2024-02-26T10:36:44;26.75;;;12.93;;
29728;SDS011;20055;51.498;11.960;2024-02-26T10:39:11;25.27;;;12.43;;
29728;SDS011;20055;51.498;11.960;2024-02-26T10:41:42;28.95;;;13.68;;
29728;SDS011;20055;51.498;11.960;2024-02-26T10:44:09;23.58;;;12.70;;
29728;SDS011;20055;51.498;11.960;2024-02-26T10:46:36;28.48;;;11.70;;
29728;SDS011;20055;51.498;11.960;2024-02-26T10:49:03;32.10;;;12.98;;
29728;SDS011;20055;51.498;11.960;2024-02-26T10:51:31;22.40;;;11.38;;
29728;SDS011;20055;51.498;11.960;2024-02-26T10:53:59;22.20;;;11.77;;
29728;SDS011;20055;51.498;11.960;2024-02-26T10:56:28;25.52;;;11.82;;
29728;SDS011;20055;51.498;11.960;2024-02-26T10:58:55;27.08;;;11.73;;
29728;SDS011;20055;51.498;11.960;2024-02-26T11:01:21;20.55;;;10.32;;
29728;SDS011;20055;51.498;11.960;2024-02-26T11:03:50;24.60;;;11.70;;
29728;SDS011;20055;51.498;11.960;2024-02-26T11:06:20;23.40;;;12.00;;
29728;SDS011;20055;51.498;11.960;2024-02-26T11:08:48;24.77;;;11.85;;
29728;SDS011;20055;51.498;11.960;2024-02-26T11:11:16;25.42;;;12.82;;
29728;SDS011;20055;51.498;11.960;2024-02-26T11:13:46;28.90;;;12.82;;
29728;SDS011;20055;51.498;11.960;2024-02-26T11:16:22;21.58;;;12.30;;
29728;SDS011;20055;51.498;11.960;2024-02-26T11:18:49;21.35;;;10.85;;
29728;SDS011;20055;51.498;11.960;2024-02-26T11:21:18;21.25;;;9.35;;
29728;SDS011;20055;51.498;11.960;2024-02-26T11:23:45;19.02;;;9.88;;
29728;SDS011;20055;51.498;11.960;2024-02-26T11:26:12;17.10;;;9.95;;
29728;SDS011;20055;51.498;11.960;2024-02-26T11:28:41;22.52;;;11.07;;
29728;SDS011;20055;51.498;11.960;2024-02-26T11:31:09;27.50;;;11.05;;
29728;SDS011;20055;51.498;11.960;2024-02-26T11:33:36;19.90;;;10.25;;
29728;SDS011;20055;51.498;11.960;2024-02-26T11:36:07;18.95;;;10.35;;
29728;SDS011;20055;51.498;11.960;2024-02-26T11:38:35;24.35;;;10.07;;
29728;SDS011;20055;51.498;11.960;2024-02-26T11:41:01;19.10;;;9.77;;
29728;SDS011;20055;51.498;11.960;2024-02-26T11:46:26;23.38;;;10.82;;
29728;SDS011;20055;51.498;11.960;2024-02-26T11:49:01;19.13;;;10.32;;
29728;SDS011;20055;51.498;11.960;2024-02-26T11:51:51;17.17;;;8.82;;
29728;SDS011;20055;51.498;11.960;2024-02-26T11:59:57;20.38;;;8.80;;
29728;SDS011;20055;51.498;11.960;2024-02-26T12:05:17;17.63;;;7.75;;
29728;SDS011;20055;51.498;11.960;2024-02-26T12:07:49;16.10;;;8.98;;
29728;SDS011;20055;51.498;11.960;2024-02-26T12:10:26;15.68;;;8.40;;
29728;SDS011;20055;51.498;11.960;2024-02-26T12:12:54;15.68;;;7.43;;
29728;SDS011;20055;51.498;11.960;2024-02-26T12:15:24;17.42;;;8.40;;
29728;SDS011;20055;51.498;11.960;2024-02-26T12:17:55;14.25;;;7.93;;
29728;SDS011;20055;51.498;11.960;2024-02-26T12:20:22;17.25;;;8.57;;
29728;SDS011;20055;51.498;11.960;2024-02-26T12:22:49;14.90;;;7.80;;
29728;SDS011;20055;51.498;11.960;2024-02-26T12:25:19;17.67;;;7.82;;
29728;SDS011;20055;51.498;11.960;2024-02-26T12:27:47;16.45;;;7.70;;
29728;SDS011;20055;51.498;11.960;2024-02-26T12:30:13;17.95;;;7.45;;
29728;SDS011;20055;51.498;11.960;2024-02-26T12:32:40;18.50;;;6.72;;
29728;SDS011;20055;51.498;11.960;2024-02-26T12:35:06;23.75;;;8.23;;
29728;SDS011;20055;51.498;11.960;2024-02-26T12:37:32;24.40;;;8.20;;
29728;SDS011;20055;51.498;11.960;2024-02-26T12:40:02;15.43;;;7.28;;
29728;SDS011;20055;51.498;11.960;2024-02-26T12:42:32;16.23;;;7.55;;
29728;SDS011;20055;51.498;11.960;2024-02-26T12:45:08;20.63;;;7.38;;
29728;SDS011;20055;51.498;11.960;2024-02-26T12:47:36;13.05;;;6.65;;
29728;SDS011;20055;51.498;11.960;2024-02-26T12:50:03;14.35;;;6.60;;
29728;SDS011;20055;51.498;11.960;2024-02-26T12:52:37;19.85;;;9.15;;
29728;SDS011;20055;51.498;11.960;2024-02-26T12:55:09;20.52;;;10.38;;
29728;SDS011;20055;51.498;11.960;2024-02-26T12:57:40;23.45;;;11.68;;
29728;SDS011;20055;51.498;11.960;2024-02-26T13:00:10;24.83;;;11.68;;
29728;SDS011;20055;51.498;11.960;2024-02-26T13:02:41;19.75;;;11.88;;
29728;SDS011;20055;51.498;11.960;2024-02-26T13:05:10;23.20;;;11.85;;
29728;SDS011;20055;51.498;11.960;2024-02-26T13:07:45;20.77;;;10.82;;
29728;SDS011;20055;51.498;11.960;2024-02-26T13:10:15;20.92;;;10.52;;
29728;SDS011;20055;51.498;11.960;2024-02-26T13:12:44;22.52;;;11.48;;
29728;SDS011;20055;51.498;11.960;2024-02-26T13:15:17;19.92;;;10.98;;
29728;SDS011;20055;51.498;11.960;2024-02-26T13:17:45;19.05;;;10.52;;
29728;SDS011;20055;51.498;11.960;2024-02-26T13:20:12;18.52;;;10.85;;
29728;SDS011;20055;51.498;11.960;2024-02-26T13:22:39;17.73;;;10.55;;
29728;SDS011;20055;51.498;11.960;2024-02-26T13:25:05;22.52;;;11.15;;
29728;SDS011;20055;51.498;11.960;2024-02-26T13:27:33;24.17;;;11.65;;
29728;SDS011;20055;51.498;11.960;2024-02-26T13:32:36;16.90;;;9.63;;
29728;SDS011;20055;51.498;11.960;2024-02-26T13:37:41;21.88;;;10.43;;
29728;SDS011;20055;51.498;11.960;2024-02-26T13:40:08;17.85;;;10.52;;
29728;SDS011;20055;51.498;11.960;2024-02-26T13:42:38;13.65;;;8.52;;
29728;SDS011;20055;51.498;11.960;2024-02-26T13:45:05;20.73;;;8.95;;
29728;SDS011;20055;51.498;11.960;2024-02-26T13:47:32;16.17;;;8.88;;
29728;SDS011;20055;51.498;11.960;2024-02-26T13:49:59;17.08;;;9.50;;
29728;SDS011;20055;51.498;11.960;2024-02-26T13:52:26;21.23;;;9.70;;
29728;SDS011;20055;51.498;11.960;2024-02-26T13:54:53;15.95;;;9.05;;
29728;SDS011;20055;51.498;11.960;2024-02-26T13:57:19;17.48;;;10.38;;
29728;SDS011;20055;51.498;11.960;2024-02-26T13:59:46;20.52;;;9.55;;
29728;SDS011;20055;51.498;11.960;2024-02-26T14:02:12;18.90;;;10.07;;
29728;SDS011;20055;51.498;11.960;2024-02-26T14:04:38;21.48;;;11.70;;
29728;SDS011;20055;51.498;11.960;2024-02-26T14:07:04;21.13;;;11.52;;
29728;SDS011;20055;51.498;11.960;2024-02-26T14:09:31;19.67;;;11.32;;
29728;SDS011;20055;51.498;11.960;2024-02-26T14:12:00;16.90;;;9.50;;
29728;SDS011;20055;51.498;11.960;2024-02-26T14:14:29;22.30;;;10.65;;
29728;SDS011;20055;51.498;11.960;2024-02-26T14:16:58;21.60;;;11.82;;
29728;SDS011;20055;51.498;11.960;2024-02-26T14:19:26;20.65;;;11.10;;
29728;SDS011;20055;51.498;11.960;2024-02-26T14:21:52;22.38;;;11.20;;
29728;SDS011;20055;51.498;11.960;2024-02-26T14:24:18;24.50;;;11.68;;
29728;SDS011;20055;51.498;11.960;2024-02-26T14:26:45;24.02;;;12.07;;
29728;SDS011;20055;51.498;11.960;2024-02-26T14:29:11;21.58;;;12.05;;
29728;SDS011;20055;51.498;11.960;2024-02-26T14:31:38;28.73;;;12.65;;